Time;durP1;ratioP1;P1;durP2;ratioP2;P2;SDS_P1;SDS_P2;PMS_P1;PMS_P2;Temp;Humidity;BMP_temperature;BMP_pressure;BME280_temperature;BME280_humidity;BME280_pressure;Samples;Min_cycle;Max_cycle;Signal;HPM_P1;HPM_P2
2023/03/25 00:01:07;;;;;;;;;;;;;;;17.01;68.86;100461.03;7405857;19;1827;-43
2023/03/25 00:03:37;;;;;;;;;;;;;;;17.00;68.86;100470.00;7405931;19;1959;-43
2023/03/25 00:06:09;;;;;;;;;;;;;;;17.02;68.92;100461.88;7406125;19;1680;-43
2023/03/25 00:08:38;;;;;;;;;;;;;;;17.00;69.15;100464.66;7406270;19;2193;-43
2023/03/25 00:11:07;;;;;;;;;;;;;;;16.99;69.00;100457.63;7403695;19;2196;-43
2023/03/25 00:13:35;;;;;;;;;;;;;;;17.00;68.94;100463.81;7404942;19;1967;-43
2023/03/25 00:16:05;;;;;;;;;;;;;;;16.97;68.98;100456.94;7405266;19;2069;-43
2023/03/25 00:18:36;;;;;;;;;;;;;;;17.00;68.93;100459.31;7402677;19;1790;-43
2023/03/25 00:21:06;;;;;;;;;;;;;;;16.97;69.35;100443.56;7404768;19;1905;-43
2023/03/25 00:23:37;;;;;;;;;;;;;;;16.97;68.92;100448.91;7404266;19;2026;-43
2023/03/25 00:26:05;;;;;;;;;;;;;;;16.98;69.12;100449.75;7405125;19;2066;-43
2023/03/25 00:28:35;;;;;;;;;;;;;;;16.97;69.17;100446.25;7404739;19;2063;-43
2023/03/25 00:31:04;;;;;;;;;;;;;;;16.95;69.15;100440.19;7404105;19;2087;-43
2023/03/25 00:33:34;;;;;;;;;;;;;;;16.94;69.23;100438.47;7405441;19;1098;-43
2023/03/25 00:36:03;;;;;;;;;;;;;;;16.96;69.31;100446.38;7403784;19;1771;-43
2023/03/25 00:38:36;;;;;;;;;;;;;;;16.92;69.17;100445.75;7405093;19;1103;-43
2023/03/25 00:41:16;;;;;;;;;;;;;;;16.93;69.00;100434.13;7404970;19;1004;-43
2023/03/25 00:43:45;;;;;;;;;;;;;;;16.94;69.18;100449.16;7405525;19;1665;-43
2023/03/25 00:46:13;;;;;;;;;;;;;;;16.92;69.08;100440.44;7404621;19;1598;-43
2023/03/25 00:48:42;;;;;;;;;;;;;;;16.95;69.20;100433.97;7404510;19;1930;-43
2023/03/25 00:51:13;;;;;;;;;;;;;;;16.97;69.14;100424.88;7402619;19;1865;-43
2023/03/25 00:53:42;;;;;;;;;;;;;;;16.94;69.08;100416.25;7405644;19;1019;-43
2023/03/25 00:56:11;;;;;;;;;;;;;;;16.92;69.40;100428.91;7404762;19;3265;-43
2023/03/25 00:58:42;;;;;;;;;;;;;;;16.87;69.42;100423.94;7404185;19;1889;-43
2023/03/25 01:01:12;;;;;;;;;;;;;;;16.86;69.46;100424.94;7401099;19;2230;-43
2023/03/25 01:03:42;;;;;;;;;;;;;;;16.88;69.47;100417.63;7404141;19;2001;-43
2023/03/25 01:06:11;;;;;;;;;;;;;;;16.89;69.66;100416.63;7403714;19;1643;-43
2023/03/25 01:08:40;;;;;;;;;;;;;;;16.86;69.10;100414.25;7403764;19;1830;-43
2023/03/25 01:11:08;;;;;;;;;;;;;;;16.83;69.59;100407.34;7402065;19;2136;-43
2023/03/25 01:13:37;;;;;;;;;;;;;;;16.86;69.61;100415.06;7403326;19;1923;-43
2023/03/25 01:16:11;;;;;;;;;;;;;;;16.86;69.32;100406.22;7402175;19;2060;-43
2023/03/25 01:18:40;;;;;;;;;;;;;;;16.83;69.22;100399.34;7402414;19;2025;-44
2023/03/25 01:21:09;;;;;;;;;;;;;;;16.85;69.32;100400.06;7402677;19;2071;-43
2023/03/25 01:23:37;;;;;;;;;;;;;;;16.87;69.66;100415.91;7401447;19;1964;-43
2023/03/25 01:26:06;;;;;;;;;;;;;;;16.84;69.18;100405.50;7403338;19;1954;-43
2023/03/25 01:28:34;;;;;;;;;;;;;;;16.82;69.45;100396.78;7403105;19;1700;-43
2023/03/25 01:31:03;;;;;;;;;;;;;;;16.81;69.43;100401.28;7399883;19;2112;-43
2023/03/25 01:33:34;;;;;;;;;;;;;;;16.80;69.46;100394.22;7403359;19;1035;-43
2023/03/25 01:36:02;;;;;;;;;;;;;;;16.87;69.38;100398.09;7400981;19;2228;-43
2023/03/25 01:38:31;;;;;;;;;;;;;;;16.94;69.09;100400.25;7402113;19;1542;-43
2023/03/25 01:41:00;;;;;;;;;;;;;;;16.92;69.35;100400.38;7402892;19;2225;-43
2023/03/25 01:43:28;;;;;;;;;;;;;;;16.92;69.13;100389.69;7403121;19;2265;-43
2023/03/25 01:45:56;;;;;;;;;;;;;;;16.89;69.42;100382.78;7402356;19;2262;-43
2023/03/25 01:48:26;;;;;;;;;;;;;;;16.91;69.24;100385.34;7403247;19;2044;-43
2023/03/25 01:50:59;;;;;;;;;;;;;;;16.97;69.46;100384.81;7403133;19;1857;-43
2023/03/25 01:53:29;;;;;;;;;;;;;;;16.98;69.01;100386.47;7402412;19;2216;-43
2023/03/25 01:55:57;;;;;;;;;;;;;;;16.97;69.15;100382.13;7402338;19;1847;-43
2023/03/25 01:58:27;;;;;;;;;;;;;;;16.95;69.36;100380.56;7401916;19;2140;-43
2023/03/25 02:00:56;;;;;;;;;;;;;;;16.92;69.17;100375.50;7402559;19;1662;-43
2023/03/25 02:03:25;;;;;;;;;;;;;;;16.90;69.29;100375.59;7402076;19;2128;-43
2023/03/25 02:06:01;;;;;;;;;;;;;;;16.97;69.19;100366.09;7403144;19;1069;-43
2023/03/25 02:08:33;;;;;;;;;;;;;;;17.00;69.24;100373.84;7401687;19;2133;-43
2023/03/25 02:11:02;;;;;;;;;;;;;;;16.99;69.27;100371.28;7402046;19;2095;-43
2023/03/25 02:13:30;;;;;;;;;;;;;;;16.95;69.46;100361.84;7401081;19;1783;-43
2023/03/25 02:16:09;;;;;;;;;;;;;;;16.93;69.13;100354.00;7400388;19;2205;-43
2023/03/25 02:18:44;;;;;;;;;;;;;;;16.92;69.43;100348.78;7400636;19;2064;-43
2023/03/25 02:21:28;;;;;;;;;;;;;;;16.94;69.02;100331.63;7400761;19;1957;-43
2023/03/25 02:24:16;;;;;;;;;;;;;;;17.00;69.45;100355.13;7400366;19;1757;-43
2023/03/25 02:27:12;;;;;;;;;;;;;;;16.97;69.29;100342.06;7400642;19;2045;-43
2023/03/25 02:29:52;;;;;;;;;;;;;;;16.98;69.21;100349.09;7401475;19;2036;-43
2023/03/25 02:32:28;;;;;;;;;;;;;;;16.95;69.40;100336.00;7399390;19;2087;-43
2023/03/25 02:35:08;;;;;;;;;;;;;;;16.96;69.30;100340.34;7401515;19;963;-43
2023/03/25 02:37:58;;;;;;;;;;;;;;;17.02;69.05;100341.66;7401391;19;1853;-43
2023/03/25 02:40:33;;;;;;;;;;;;;;;16.99;69.12;100341.91;7400754;19;1824;-43
2023/03/25 02:43:05;;;;;;;;;;;;;;;16.99;69.40;100337.44;7400281;19;1777;-43
2023/03/25 02:45:35;;;;;;;;;;;;;;;16.95;69.08;100327.13;7400829;19;2105;-43
2023/03/25 02:48:06;;;;;;;;;;;;;;;16.92;69.11;100330.91;7398909;19;2144;-43
2023/03/25 02:50:36;;;;;;;;;;;;;;;17.39;68.08;100325.94;7397163;19;1027;-43
2023/03/25 02:53:07;;;;;;;;;;;;;;;18.23;65.52;100320.16;7398982;19;2127;-43
2023/03/25 02:55:40;;;;;;;;;;;;;;;19.09;63.20;100313.97;7400267;19;1757;-43
2023/03/25 02:58:11;;;;;;;;;;;;;;;19.66;61.36;100311.97;7400946;19;1839;-43
2023/03/25 03:00:40;;;;;;;;;;;;;;;19.91;60.62;100306.06;7400613;19;1829;-43
2023/03/25 03:03:09;;;;;;;;;;;;;;;19.31;62.17;100320.78;7400825;19;1768;-43
2023/03/25 03:05:40;;;;;;;;;;;;;;;19.23;62.62;100318.00;7400961;19;2169;-43
2023/03/25 03:08:18;;;;;;;;;;;;;;;19.28;62.76;100313.03;7399018;19;2138;-43
2023/03/25 03:10:52;;;;;;;;;;;;;;;19.64;61.74;100299.72;7399788;19;2051;-43
2023/03/25 03:13:25;;;;;;;;;;;;;;;19.74;61.29;100299.69;7396577;19;2244;-43
2023/03/25 03:15:57;;;;;;;;;;;;;;;19.82;60.98;100297.91;7400021;19;1990;-43
2023/03/25 03:18:33;;;;;;;;;;;;;;;19.86;61.18;100293.09;7399641;19;1956;-43
2023/03/25 03:21:08;;;;;;;;;;;;;;;19.86;61.00;100302.00;7399600;19;2029;-43
2023/03/25 03:23:39;;;;;;;;;;;;;;;19.93;61.06;100288.78;7399047;19;2060;-43
2023/03/25 03:26:13;;;;;;;;;;;;;;;19.95;61.11;100307.44;7397595;19;1591;-43
2023/03/25 03:28:46;;;;;;;;;;;;;;;19.94;61.05;100300.38;7398564;19;1812;-43
2023/03/25 03:31:19;;;;;;;;;;;;;;;19.99;60.76;100306.97;7399678;19;1993;-43
2023/03/25 03:33:49;;;;;;;;;;;;;;;20.06;60.73;100293.78;7399945;19;1409;-43
2023/03/25 03:36:19;;;;;;;;;;;;;;;20.09;60.89;100304.19;7399130;19;2159;-43
2023/03/25 03:38:49;;;;;;;;;;;;;;;20.03;60.80;100305.69;7396433;19;2121;-43
2023/03/25 03:41:21;;;;;;;;;;;;;;;20.07;60.86;100295.47;7398771;19;1733;-43
2023/03/25 03:43:51;;;;;;;;;;;;;;;20.12;60.71;100297.72;7399684;19;1963;-43
2023/03/25 03:46:22;;;;;;;;;;;;;;;20.12;60.58;100303.06;7398752;19;2079;-43
2023/03/25 03:48:54;;;;;;;;;;;;;;;20.20;60.62;100305.81;7396838;19;2075;-43
2023/03/25 03:51:29;;;;;;;;;;;;;;;20.22;60.35;100290.41;7399244;19;2113;-43
2023/03/25 03:54:00;;;;;;;;;;;;;;;20.19;60.34;100301.44;7402607;19;1720;-43
2023/03/25 03:56:35;;;;;;;;;;;;;;;20.21;60.27;100302.13;7406753;19;1275;-43
2023/03/25 03:59:06;;;;;;;;;;;;;;;20.18;60.70;100292.56;7406905;19;2176;-43
2023/03/25 04:01:37;;;;;;;;;;;;;;;19.41;62.74;100300.13;7404742;19;2163;-43
2023/03/25 04:04:07;;;;;;;;;;;;;;;18.82;64.24;100304.03;7404882;19;1926;-43
2023/03/25 04:06:40;;;;;;;;;;;;;;;18.46;64.89;100304.66;7406372;19;1947;-43
2023/03/25 04:09:17;;;;;;;;;;;;;;;18.25;65.65;100312.84;7406544;19;1693;-43
2023/03/25 04:11:51;;;;;;;;;;;;;;;18.35;65.70;100312.00;7406211;19;1848;-43
2023/03/25 04:14:20;;;;;;;;;;;;;;;18.88;64.08;100314.19;7406668;19;1094;-43
2023/03/25 04:16:48;;;;;;;;;;;;;;;19.23;63.14;100324.19;7406301;19;2150;-43
2023/03/25 04:19:18;;;;;;;;;;;;;;;19.33;62.81;100308.06;7404888;19;1919;-43
2023/03/25 04:21:47;;;;;;;;;;;;;;;19.35;62.85;100310.59;7405543;19;2183;-43
2023/03/25 04:24:18;;;;;;;;;;;;;;;19.43;62.55;100314.22;7405112;19;2039;-43
2023/03/25 04:26:51;;;;;;;;;;;;;;;19.43;62.63;100322.25;7405426;19;2061;-43
2023/03/25 04:29:20;;;;;;;;;;;;;;;19.47;62.26;100307.56;7404690;19;2099;-43
2023/03/25 04:31:49;;;;;;;;;;;;;;;19.46;62.56;100299.69;7403946;19;2118;-44
2023/03/25 04:34:19;;;;;;;;;;;;;;;19.13;63.12;100312.66;7404545;19;1936;-43
2023/03/25 04:36:48;;;;;;;;;;;;;;;18.65;64.75;100325.19;7404603;19;1820;-43
2023/03/25 04:39:21;;;;;;;;;;;;;;;18.32;65.32;100318.47;7402818;19;2115;-43
2023/03/25 04:41:52;;;;;;;;;;;;;;;18.32;65.67;100320.31;7404456;19;1818;-43
2023/03/25 04:44:22;;;;;;;;;;;;;;;18.82;64.32;100320.09;7405070;19;1922;-43
2023/03/25 04:46:50;;;;;;;;;;;;;;;19.22;63.08;100327.03;7405285;19;1858;-43
2023/03/25 04:49:20;;;;;;;;;;;;;;;19.30;62.75;100316.41;7405121;19;2053;-43
2023/03/25 04:51:50;;;;;;;;;;;;;;;19.35;62.52;100327.53;7405429;19;1850;-43
2023/03/25 04:54:18;;;;;;;;;;;;;;;19.41;62.63;100324.25;7403765;19;2149;-43
2023/03/25 04:56:49;;;;;;;;;;;;;;;19.27;62.63;100322.91;7403021;19;2164;-43
2023/03/25 04:59:22;;;;;;;;;;;;;;;18.94;63.98;100321.63;7401463;19;2044;-43
2023/03/25 05:01:51;;;;;;;;;;;;;;;18.60;64.80;100327.47;7403324;19;1799;-43
2023/03/25 05:04:20;;;;;;;;;;;;;;;18.38;65.08;100317.91;7403243;19;1872;-43
2023/03/25 05:06:50;;;;;;;;;;;;;;;18.72;64.40;100330.84;7403053;19;1607;-43
2023/03/25 05:09:20;;;;;;;;;;;;;;;19.20;63.21;100321.81;7403392;19;1529;-43
2023/03/25 05:11:49;;;;;;;;;;;;;;;19.43;62.46;100330.31;7404571;19;1858;-43
2023/03/25 05:14:21;;;;;;;;;;;;;;;19.97;61.03;100327.75;7404773;19;1430;-43
2023/03/25 05:16:50;;;;;;;;;;;;;;;19.42;62.20;100323.28;5860853;19;10000683;-44
2023/03/25 05:19:19;;;;;;;;;;;;;;;18.84;63.76;100319.00;7397298;19;2098;-43
2023/03/25 05:21:47;;;;;;;;;;;;;;;18.80;64.05;100319.41;7398093;19;1903;-43
2023/03/25 05:24:16;;;;;;;;;;;;;;;19.29;62.90;100317.41;7398972;19;2090;-43
2023/03/25 05:26:44;;;;;;;;;;;;;;;19.65;61.49;100309.44;7396916;19;2396;-44
2023/03/25 05:29:14;;;;;;;;;;;;;;;19.48;62.12;100316.47;7395406;19;1934;-43
2023/03/25 05:31:47;;;;;;;;;;;;;;;19.38;62.49;100324.56;7397369;19;1926;-43
2023/03/25 05:34:16;;;;;;;;;;;;;;;19.33;62.43;100323.31;7396126;19;2363;-43
2023/03/25 05:36:44;;;;;;;;;;;;;;;19.73;61.61;100314.91;7396401;19;1952;-43
2023/03/25 05:39:14;;;;;;;;;;;;;;;19.79;61.18;100318.84;7390355;19;2184;-44
2023/03/25 05:41:44;;;;;;;;;;;;;;;19.52;62.11;100311.63;7396997;19;2197;-43
2023/03/25 05:44:13;;;;;;;;;;;;;;;19.32;62.62;100329.66;7397064;19;1987;-43
2023/03/25 05:46:42;;;;;;;;;;;;;;;19.17;63.37;100334.66;7397399;19;1812;-43
2023/03/25 05:49:13;;;;;;;;;;;;;;;19.73;61.61;100322.97;7397789;19;1833;-43
2023/03/25 05:51:43;;;;;;;;;;;;;;;20.13;60.57;100329.75;7397836;19;2003;-43
2023/03/25 05:54:12;;;;;;;;;;;;;;;20.14;60.60;100328.75;7396272;19;1972;-43
2023/03/25 05:56:41;;;;;;;;;;;;;;;19.66;61.52;100321.88;7397144;19;1733;-43
2023/03/25 05:59:10;;;;;;;;;;;;;;;19.29;62.81;100322.75;7397583;19;2043;-43
2023/03/25 06:01:40;;;;;;;;;;;;;;;19.02;63.74;100328.91;7394793;19;1715;-43
2023/03/25 06:04:11;;;;;;;;;;;;;;;19.22;63.41;100324.38;7396088;19;2130;-43
2023/03/25 06:06:42;;;;;;;;;;;;;;;19.78;61.88;100328.72;7395646;19;1974;-43
2023/03/25 06:09:11;;;;;;;;;;;;;;;20.06;60.85;100329.53;7397426;19;1596;-43
2023/03/25 06:11:40;;;;;;;;;;;;;;;19.72;62.01;100317.78;7398647;19;1854;-43
2023/03/25 06:14:09;;;;;;;;;;;;;;;19.42;62.74;100327.78;7397311;19;2104;-44
2023/03/25 06:16:38;;;;;;;;;;;;;;;19.18;63.86;100333.66;7396411;19;1700;-43
2023/03/25 06:19:08;;;;;;;;;;;;;;;19.08;64.30;100315.81;7399366;19;1797;-43
2023/03/25 06:21:37;;;;;;;;;;;;;;;19.39;63.66;100306.63;7400354;19;2173;-43
2023/03/25 06:24:08;;;;;;;;;;;;;;;19.95;61.91;100312.78;7399423;19;1847;-43
2023/03/25 06:26:37;;;;;;;;;;;;;;;19.93;62.84;100336.25;7399293;19;1959;-43
2023/03/25 06:29:07;;;;;;;;;;;;;;;19.60;63.51;100327.84;7400291;19;1847;-43
2023/03/25 06:31:35;;;;;;;;;;;;;;;19.30;63.76;100339.69;7397902;19;2198;-43
2023/03/25 06:34:04;;;;;;;;;;;;;;;19.15;64.02;100336.66;7397273;19;2197;-43
2023/03/25 06:36:33;;;;;;;;;;;;;;;19.13;64.56;100338.63;7400989;19;1899;-43
2023/03/25 06:39:04;;;;;;;;;;;;;;;19.59;63.73;100320.78;7398527;19;1772;-43
2023/03/25 06:41:36;;;;;;;;;;;;;;;20.09;62.14;100320.31;7398036;19;1751;-43
2023/03/25 06:44:05;;;;;;;;;;;;;;;19.76;62.99;100317.31;7399347;19;1755;-43
2023/03/25 06:46:33;;;;;;;;;;;;;;;19.55;64.00;100322.06;7401272;19;1401;-43
2023/03/25 06:49:01;;;;;;;;;;;;;;;19.32;64.46;100335.88;7400566;19;1518;-43
2023/03/25 06:51:30;;;;;;;;;;;;;;;19.21;64.94;100336.06;7399924;19;1567;-43
2023/03/25 06:53:58;;;;;;;;;;;;;;;19.08;65.42;100331.03;7399277;19;1858;-43
2023/03/25 06:56:27;;;;;;;;;;;;;;;19.70;63.77;100320.56;7398316;19;1998;-43
2023/03/25 06:58:58;;;;;;;;;;;;;;;19.92;61.67;100322.00;7397707;19;1908;-43
2023/03/25 07:01:26;;;;;;;;;;;;;;;19.66;63.38;100313.81;7399726;19;1719;-43
2023/03/25 07:03:54;;;;;;;;;;;;;;;19.44;63.78;100329.31;7399926;19;1618;-43
2023/03/25 07:06:24;;;;;;;;;;;;;;;19.24;64.36;100328.56;7399773;19;1957;-43
2023/03/25 07:08:53;;;;;;;;;;;;;;;19.12;64.95;100331.56;7397699;19;1749;-43
2023/03/25 07:11:25;;;;;;;;;;;;;;;19.43;64.20;100326.78;7398097;19;1647;-43
2023/03/25 07:13:53;;;;;;;;;;;;;;;19.93;63.00;100326.34;7399252;19;1865;-43
2023/03/25 07:16:25;;;;;;;;;;;;;;;19.73;63.53;100320.28;7400306;19;1653;-43
2023/03/25 07:18:55;;;;;;;;;;;;;;;19.53;64.12;100319.53;7399806;19;1684;-43
2023/03/25 07:21:24;;;;;;;;;;;;;;;19.28;65.01;100313.03;7397888;19;2175;-43
2023/03/25 07:23:52;;;;;;;;;;;;;;;19.17;65.33;100310.53;7398277;19;1854;-43
2023/03/25 07:26:20;;;;;;;;;;;;;;;19.39;66.17;100314.69;7398739;19;1827;-43
2023/03/25 07:28:49;;;;;;;;;;;;;;;19.91;64.92;100316.78;7400834;19;2153;-43
2023/03/25 07:31:17;;;;;;;;;;;;;;;19.94;64.98;100321.88;7404786;19;1695;-43
2023/03/25 07:33:50;;;;;;;;;;;;;;;19.65;65.73;100325.53;7401265;19;1829;-43
2023/03/25 07:36:20;;;;;;;;;;;;;;;19.36;66.27;100321.19;7406730;19;1741;-43
2023/03/25 07:38:49;;;;;;;;;;;;;;;19.23;66.78;100315.31;7403774;19;1579;-43
2023/03/25 07:41:18;;;;;;;;;;;;;;;19.14;66.72;100317.06;7404065;19;1560;-43
2023/03/25 07:43:47;;;;;;;;;;;;;;;19.11;66.62;100314.66;7407425;19;1800;-43
2023/03/25 07:46:15;;;;;;;;;;;;;;;19.04;67.05;100303.69;7406314;19;1625;-43
2023/03/25 07:48:44;;;;;;;;;;;;;;;19.05;67.17;100307.22;7405470;19;1804;-43
2023/03/25 07:51:15;;;;;;;;;;;;;;;19.08;66.57;100326.53;7402907;19;1578;-43
2023/03/25 07:53:44;;;;;;;;;;;;;;;19.05;66.37;100320.59;7405045;19;1995;-43
2023/03/25 07:56:12;;;;;;;;;;;;;;;19.02;66.95;100324.44;7406074;19;1940;-43
2023/03/25 07:58:41;;;;;;;;;;;;;;;18.85;63.55;100317.97;7405431;19;1901;-43
2023/03/25 08:01:09;;;;;;;;;;;;;;;18.60;64.39;100332.81;7407198;19;1773;-43
2023/03/25 08:03:38;;;;;;;;;;;;;;;18.57;62.72;100319.72;7406046;19;1879;-43
2023/03/25 08:06:09;;;;;;;;;;;;;;;18.67;61.00;100323.22;7404584;19;1801;-43
2023/03/25 08:08:40;;;;;;;;;;;;;;;18.71;58.54;100325.63;7405195;19;1526;-43
2023/03/25 08:11:09;;;;;;;;;;;;;;;18.65;58.20;100325.19;7404666;19;2208;-43
2023/03/25 08:13:38;;;;;;;;;;;;;;;18.60;56.78;100311.41;7404203;19;1857;-43
2023/03/25 08:16:11;;;;;;;;;;;;;;;18.60;56.08;100332.81;7404634;19;2147;-43
2023/03/25 08:18:43;;;;;;;;;;;;;;;18.52;55.78;100313.94;7404921;19;1744;-43
2023/03/25 08:21:12;;;;;;;;;;;;;;;18.52;55.28;100313.94;7404329;19;2056;-43
2023/03/25 08:23:43;;;;;;;;;;;;;;;18.52;52.82;100310.41;7403612;19;1771;-43
2023/03/25 08:26:11;;;;;;;;;;;;;;;18.57;52.10;100303.66;7404551;19;2011;-43
2023/03/25 08:28:41;;;;;;;;;;;;;;;18.53;52.70;100299.56;7406213;19;1987;-43
2023/03/25 08:31:10;;;;;;;;;;;;;;;18.51;54.28;100298.03;7401423;19;1693;-42
2023/03/25 08:33:41;;;;;;;;;;;;;;;18.50;53.65;100310.56;7402906;19;1964;-43
2023/03/25 08:36:12;;;;;;;;;;;;;;;18.54;52.91;100295.03;7403657;19;1595;-43
2023/03/25 08:38:44;;;;;;;;;;;;;;;18.55;53.18;100292.22;7401989;19;1749;-43
2023/03/25 08:41:12;;;;;;;;;;;;;;;18.54;52.98;100285.19;7403760;19;1494;-43
2023/03/25 08:43:41;;;;;;;;;;;;;;;18.59;53.83;100299.00;7404934;19;1518;-43
2023/03/25 08:46:10;;;;;;;;;;;;;;;18.64;53.33;100285.16;7403416;19;1838;-43
2023/03/25 08:48:38;;;;;;;;;;;;;;;18.65;51.97;100287.69;7402157;19;1649;-43
2023/03/25 08:51:08;;;;;;;;;;;;;;;18.64;53.14;100282.47;7401919;19;1805;-43
2023/03/25 08:53:37;;;;;;;;;;;;;;;18.65;52.77;100279.66;7402445;19;1854;-43
2023/03/25 08:56:08;;;;;;;;;;;;;;;18.59;53.05;100266.00;7404096;19;1920;-43
2023/03/25 08:58:37;;;;;;;;;;;;;;;18.63;51.17;100270.09;7403587;19;1887;-43
2023/03/25 09:01:06;;;;;;;;;;;;;;;18.66;50.28;100272.47;7402390;19;1813;-43
2023/03/25 09:03:36;;;;;;;;;;;;;;;18.76;51.28;100273.31;7401860;19;2047;-43
2023/03/25 09:06:05;;;;;;;;;;;;;;;18.72;50.36;100265.69;7402498;19;1951;-43
2023/03/25 09:08:35;;;;;;;;;;;;;;;18.71;51.09;100258.66;7402028;19;1206;-43
2023/03/25 09:11:05;;;;;;;;;;;;;;;18.65;51.73;100255.56;7403755;19;1552;-43
2023/03/25 09:13:36;;;;;;;;;;;;;;;18.71;51.05;100250.63;7401860;19;2071;-43
2023/03/25 09:16:04;;;;;;;;;;;;;;;18.68;51.63;100265.13;7401663;19;1630;-43
2023/03/25 09:18:35;;;;;;;;;;;;;;;18.73;51.64;100267.38;7402592;19;1747;-43
2023/03/25 09:21:04;;;;;;;;;;;;;;;18.67;51.97;100269.66;7401402;19;1925;-43
2023/03/25 09:23:32;;;;;;;;;;;;;;;18.67;52.02;100258.94;7400577;19;1917;-43
2023/03/25 09:26:02;;;;;;;;;;;;;;;18.75;52.26;100276.97;7401211;19;1754;-43
2023/03/25 09:28:31;;;;;;;;;;;;;;;18.71;53.05;100261.34;7401483;19;1701;-43
2023/03/25 09:31:02;;;;;;;;;;;;;;;18.79;52.13;100250.72;7399649;19;1715;-43
2023/03/25 09:33:31;;;;;;;;;;;;;;;18.81;51.94;100240.75;7400946;19;1853;-43
2023/03/25 09:36:00;;;;;;;;;;;;;;;18.77;51.88;100242.00;7403068;19;1643;-43
2023/03/25 09:38:28;;;;;;;;;;;;;;;18.77;51.97;100233.97;7400765;19;1743;-43
2023/03/25 09:40:56;;;;;;;;;;;;;;;18.67;51.81;100248.22;7401664;19;1966;-43
2023/03/25 09:43:35;;;;;;;;;;;;;;;18.74;51.17;100239.59;7400879;19;2204;-43
2023/03/25 09:46:07;;;;;;;;;;;;;;;18.71;51.97;100237.22;7401696;19;1818;-43
2023/03/25 09:48:39;;;;;;;;;;;;;;;18.81;53.22;100232.72;7397581;19;1705;-43
2023/03/25 09:51:09;;;;;;;;;;;;;;;18.81;53.49;100230.88;7396382;19;1555;-43
2023/03/25 09:53:39;;;;;;;;;;;;;;;18.78;53.77;100232.94;7400482;19;1857;-43
2023/03/25 09:56:12;;;;;;;;;;;;;;;18.84;53.69;100232.41;7396769;19;2239;-45
2023/03/25 09:58:44;;;;;;;;;;;;;;;18.94;53.79;100221.63;7401609;19;1666;-46
2023/03/25 10:01:32;;;;;;;;;;;;;;;19.10;53.24;100229.91;7398973;19;1531;-45
2023/03/25 10:04:09;;;;;;;;;;;;;;;19.11;53.20;100226.22;7401137;19;1836;-45
2023/03/25 10:06:41;;;;;;;;;;;;;;;19.16;53.21;100231.97;7401518;19;1616;-45
2023/03/25 10:09:17;;;;;;;;;;;;;;;19.26;52.92;100238.13;7402206;19;1388;-46
2023/03/25 10:11:52;;;;;;;;;;;;;;;19.18;53.69;100229.13;7395094;19;1752;-46
2023/03/25 10:14:22;;;;;;;;;;;;;;;19.14;54.58;100228.59;7399461;19;1853;-45
2023/03/25 10:16:59;;;;;;;;;;;;;;;19.12;55.91;100235.09;7400315;19;1651;-45
2023/03/25 10:19:32;;;;;;;;;;;;;;;19.07;55.37;100222.97;7398869;19;1890;-38
2023/03/25 10:22:05;;;;;;;;;;;;;;;19.06;55.88;100220.47;7400866;19;1787;-39
2023/03/25 10:24:36;;;;;;;;;;;;;;;19.02;56.17;100227.97;7401067;19;2013;-38
2023/03/25 10:27:06;;;;;;;;;;;;;;;19.01;56.30;100222.75;7400101;19;3864;-38
2023/03/25 10:29:37;;;;;;;;;;;;;;;18.92;57.07;100224.50;7399949;19;1938;-38
2023/03/25 10:32:13;;;;;;;;;;;;;;;18.90;57.84;100225.59;7394499;19;1936;-38
2023/03/25 10:34:45;;;;;;;;;;;;;;;18.81;58.03;100213.94;7398248;19;1849;-38
2023/03/25 10:37:16;;;;;;;;;;;;;;;18.79;57.99;100219.44;7398310;19;1887;-38
2023/03/25 10:39:46;;;;;;;;;;;;;;;18.75;58.07;100211.84;7397226;19;1826;-38
2023/03/25 10:42:21;;;;;;;;;;;;;;;18.74;58.61;100216.34;7396161;19;1879;-35
2023/03/25 10:44:50;;;;;;;;;;;;;;;18.91;56.82;100198.69;7395687;19;1847;-35
2023/03/25 10:47:22;;;;;;;;;;;;;;;18.88;56.64;100202.50;7398557;19;1829;-36
2023/03/25 10:49:51;;;;;;;;;;;;;;;18.82;56.77;100207.59;7396527;19;1993;-36
2023/03/25 10:52:20;;;;;;;;;;;;;;;18.70;57.45;100209.56;7396409;19;2296;-35
2023/03/25 10:54:49;;;;;;;;;;;;;;;18.64;57.72;100205.69;7398103;19;1921;-36
2023/03/25 10:57:20;;;;;;;;;;;;;;;18.66;57.85;100198.34;7398285;19;1608;-36
2023/03/25 10:59:54;;;;;;;;;;;;;;;18.64;57.71;100178.91;7397654;19;1879;-36
2023/03/25 11:02:26;;;;;;;;;;;;;;;18.65;57.79;100185.94;7400050;19;1869;-36
2023/03/25 11:04:57;;;;;;;;;;;;;;;18.61;57.67;100179.19;7407312;19;2050;-36
2023/03/25 11:07:29;;;;;;;;;;;;;;;18.57;57.55;100177.78;7406349;19;2149;-36
2023/03/25 11:10:10;;;;;;;;;;;;;;;18.55;57.72;100176.25;7407030;19;2035;-35
2023/03/25 11:12:38;;;;;;;;;;;;;;;18.65;57.32;100167.19;7405384;19;1973;-36
2023/03/25 11:15:08;;;;;;;;;;;;;;;18.63;57.54;100155.78;7405245;19;2405;-36
2023/03/25 11:17:39;;;;;;;;;;;;;;;18.56;58.00;100162.72;7406605;19;1968;-35
2023/03/25 11:20:09;;;;;;;;;;;;;;;18.55;58.21;100157.50;7407396;19;1826;-36
2023/03/25 11:22:39;;;;;;;;;;;;;;;18.51;58.31;100150.78;7406691;19;2049;-36
2023/03/25 11:25:09;;;;;;;;;;;;;;;18.47;58.26;100142.19;7406924;19;1898;-36
2023/03/25 11:27:41;;;;;;;;;;;;;;;18.48;58.32;100150.06;7405530;19;1976;-36
2023/03/25 11:30:16;;;;;;;;;;;;;;;18.58;57.99;100136.66;7406841;19;1535;-44
2023/03/25 11:32:57;;;;;;;;;;;;;;;18.67;58.31;100135.75;7406044;19;1831;-46
2023/03/25 11:35:28;;;;;;;;;;;;;;;18.65;58.05;100137.72;7405511;19;1860;-46
2023/03/25 11:37:57;;;;;;;;;;;;;;;18.70;58.28;100129.22;7406690;19;1612;-43
2023/03/25 11:40:26;;;;;;;;;;;;;;;18.78;58.48;100136.53;7407633;19;1429;-43
2023/03/25 11:42:55;;;;;;;;;;;;;;;18.74;58.39;100121.75;7407242;19;1841;-43
2023/03/25 11:45:26;;;;;;;;;;;;;;;18.71;58.82;100124.75;7403062;19;1059;-43
2023/03/25 11:48:00;;;;;;;;;;;;;;;18.75;58.35;100107.38;6380729;19;10000650;-43
2023/03/25 11:50:30;;;;;;;;;;;;;;;18.80;57.30;100108.66;7404353;19;1520;-43
2023/03/25 11:53:00;;;;;;;;;;;;;;;18.63;58.19;100106.72;7404334;19;1996;-43
2023/03/25 11:55:33;;;;;;;;;;;;;;;18.54;58.63;100095.06;7403756;19;1926;-43
2023/03/25 11:58:03;;;;;;;;;;;;;;;18.46;59.12;100116.38;7404556;19;1785;-43
2023/03/25 12:00:39;;;;;;;;;;;;;;;18.40;58.83;100106.28;7404164;19;1396;-44
2023/03/25 12:03:14;;;;;;;;;;;;;;;18.35;59.22;100108.56;7406169;19;1761;-43
2023/03/25 12:05:58;;;;;;;;;;;;;;;18.28;59.57;100109.16;7404951;19;1556;-43
2023/03/25 12:08:43;;;;;;;;;;;;;;;18.28;59.52;100093.09;7403706;19;1052;-43
2023/03/25 12:11:15;;;;;;;;;;;;;;;18.32;59.68;100103.50;7405059;19;1695;-43
2023/03/25 12:13:55;;;;;;;;;;;;;;;18.31;59.50;100096.47;7400975;19;1744;-43
2023/03/25 12:16:31;;;;;;;;;;;;;;;18.32;58.88;100095.47;7400227;19;1860;-43
2023/03/25 12:19:14;;;;;;;;;;;;;;;18.33;59.11;100094.50;7403029;19;1710;-43
2023/03/25 12:22:00;;;;;;;;;;;;;;;18.30;58.67;100090.25;7401794;19;1075;-43
2023/03/25 12:24:38;;;;;;;;;;;;;;;18.27;58.38;100086.03;7403800;19;1932;-43
2023/03/25 12:27:16;;;;;;;;;;;;;;;18.29;58.95;100083.22;7403845;19;1035;-43
2023/03/25 12:29:49;;;;;;;;;;;;;;;18.27;58.86;100086.03;7403770;19;1974;-44
2023/03/25 12:32:27;;;;;;;;;;;;;;;18.38;58.49;100076.13;7098584;19;10000644;-44
2023/03/25 12:35:03;;;;;;;;;;;;;;;18.46;58.88;100076.22;7400809;19;1870;-44
2023/03/25 12:37:38;;;;;;;;;;;;;;;18.42;59.45;100082.88;7401824;19;1552;-43
2023/03/25 12:40:19;;;;;;;;;;;;;;;18.44;60.03;100075.53;7402896;19;1641;-44
2023/03/25 12:42:54;;;;;;;;;;;;;;;18.40;59.80;100074.16;7401498;19;1814;-44
2023/03/25 12:45:30;;;;;;;;;;;;;;;18.39;60.20;100078.66;7403591;19;1687;-44
2023/03/25 12:48:04;;;;;;;;;;;;;;;18.40;60.13;100092.88;7403541;19;1710;-43
2023/03/25 12:50:40;;;;;;;;;;;;;;;18.38;60.06;100062.75;7403152;19;1664;-44
2023/03/25 12:53:18;;;;;;;;;;;;;;;18.36;60.47;100068.25;7403470;19;1478;-43
2023/03/25 12:55:55;;;;;;;;;;;;;;;18.29;60.82;100056.47;7401143;19;2118;-43
2023/03/25 12:58:40;;;;;;;;;;;;;;;18.28;60.88;100060.97;7402523;19;1927;-43
2023/03/25 13:01:12;;;;;;;;;;;;;;;18.25;61.01;100045.19;7403033;19;1043;-44
2023/03/25 13:03:59;;;;;;;;;;;;;;;18.24;61.17;100048.88;7403879;19;1032;-43
2023/03/25 13:06:33;;;;;;;;;;;;;;;18.25;61.27;100053.22;7403273;19;1589;-43